createdAt,value
2022-11-17T00:01:25.834Z,6.75
2022-11-17T00:03:55.600Z,5.86
2022-11-17T00:06:26.783Z,6.28
2022-11-17T00:08:59.157Z,7.31
2022-11-17T00:11:52.410Z,7.02
2022-11-17T00:14:42.071Z,5.80
2022-11-17T00:17:16.399Z,6.25
2022-11-17T00:20:11.907Z,7.28
2022-11-17T00:22:45.749Z,7.05
2022-11-17T00:25:14.750Z,6.15
2022-11-17T00:27:48.545Z,5.49
2022-11-17T00:30:45.718Z,5.81
2022-11-17T00:33:36.002Z,7.66
2022-11-17T00:36:09.343Z,8.59
2022-11-17T00:38:37.650Z,7.50
2022-11-17T00:41:14.711Z,6.53
2022-11-17T00:43:47.832Z,5.73
2022-11-17T00:46:20.342Z,5.84
2022-11-17T00:48:54.360Z,7.30
2022-11-17T00:51:28.587Z,7.96
2022-11-17T00:54:01.368Z,6.86
2022-11-17T00:56:44.082Z,5.90
2022-11-17T00:59:25.968Z,5.30
2022-11-17T01:02:01.987Z,5.42
2022-11-17T01:04:46.459Z,7.04
2022-11-17T01:07:25.746Z,8.44
2022-11-17T01:10:01.383Z,7.93
2022-11-17T01:12:42.701Z,6.97
2022-11-17T01:18:31.637Z,5.42
2022-11-17T01:21:18.499Z,5.01
2022-11-17T01:24:04.303Z,6.31
2022-11-17T01:27:12.910Z,8.41
2022-11-17T01:30:03.313Z,7.69
2022-11-17T01:32:41.440Z,6.66
2022-11-17T01:35:24.241Z,5.85
2022-11-17T01:37:59.807Z,5.32
2022-11-17T01:40:37.485Z,6.59
2022-11-17T01:43:13.851Z,8.29
2022-11-17T01:45:55.586Z,9.10
2022-11-17T01:48:25.061Z,7.95
2022-11-17T01:50:55.142Z,6.79
2022-11-17T01:53:30.834Z,5.87
2022-11-17T01:56:12.876Z,5.24
2022-11-17T01:58:53.182Z,6.23
2022-11-17T02:01:34.250Z,7.87
2022-11-17T02:04:09.764Z,7.75
2022-11-17T02:06:41.686Z,6.54
2022-11-17T02:09:17.257Z,5.66
2022-11-17T02:11:52.996Z,5.04
2022-11-17T02:14:36.525Z,6.03
2022-11-17T02:21:25.377Z,8.11
2022-11-17T02:24:40.089Z,6.23
2022-11-17T02:27:41.842Z,5.17
2022-11-17T02:30:39.734Z,6.59
2022-11-17T02:34:10.454Z,8.17
2022-11-17T02:37:27.821Z,7.11
2022-11-17T02:40:07.735Z,5.80
2022-11-17T02:43:15.741Z,5.01
2022-11-17T02:46:19.897Z,5.22
2022-11-17T02:49:20.311Z,7.27
2022-11-17T02:52:14.996Z,8.09
2022-11-17T02:55:27.001Z,6.75
2022-11-17T02:58:04.322Z,5.54
2022-11-17T03:00:40.880Z,5.01
2022-11-17T03:07:34.516Z,8.33
2022-11-17T03:10:19.397Z,7.59
2022-11-17T03:13:33.874Z,6.50
2022-11-17T03:16:22.266Z,5.46
2022-11-17T03:19:08.443Z,4.90
2022-11-17T03:21:48.713Z,5.83
2022-11-17T03:24:31.338Z,7.78
2022-11-17T03:27:20.381Z,8.87
2022-11-17T03:30:15.604Z,7.65
2022-11-17T03:33:03.186Z,6.42
2022-11-17T03:36:04.465Z,5.59
2022-11-17T03:39:12.554Z,5.02
2022-11-17T03:41:47.039Z,4.86
2022-11-17T03:44:32.244Z,6.46
2022-11-17T03:47:04.325Z,7.59
2022-11-17T03:50:24.119Z,6.91
2022-11-17T03:52:56.109Z,5.64
2022-11-17T03:55:42.304Z,5.05
2022-11-17T03:58:22.900Z,4.57
2022-11-17T04:00:55.215Z,4.65
2022-11-17T04:03:24.109Z,6.47
2022-11-17T04:05:53.950Z,8.13
2022-11-17T04:08:27.472Z,8.20
2022-11-17T04:11:25.687Z,6.97
2022-11-17T04:16:56.851Z,4.94
2022-11-17T04:19:28.282Z,5.06
2022-11-17T04:21:58.417Z,6.81
2022-11-17T04:24:26.888Z,7.59
2022-11-17T04:27:16.732Z,6.84
2022-11-17T04:29:49.545Z,5.57
2022-11-17T04:32:18.910Z,5.33
2022-11-17T04:34:48.316Z,6.77
2022-11-17T04:37:20.918Z,7.85
2022-11-17T04:39:52.931Z,7.17
2022-11-17T04:42:25.026Z,5.96
2022-11-17T04:44:54.232Z,5.06
2022-11-17T04:47:22.373Z,5.81
2022-11-17T04:49:53.980Z,7.08
2022-11-17T04:52:29.476Z,7.44
2022-11-17T04:55:00.887Z,6.35
2022-11-17T04:57:31.861Z,5.30
2022-11-17T05:00:00.949Z,4.56
2022-11-17T05:02:32.503Z,4.46
2022-11-17T05:05:06.665Z,6.18
2022-11-17T05:07:36.346Z,7.85
2022-11-17T05:10:12.455Z,8.14
2022-11-17T05:13:03.988Z,7.04
2022-11-17T05:15:50.526Z,5.85
2022-11-17T05:18:21.503Z,5.01
2022-11-17T05:20:56.656Z,4.51
2022-11-17T05:23:46.553Z,5.54
2022-11-17T05:26:14.535Z,7.53
2022-11-17T05:28:46.119Z,7.95
2022-11-17T05:31:14.201Z,6.91
2022-11-17T05:33:44.292Z,5.82
2022-11-17T05:36:15.937Z,5.04
2022-11-17T05:38:56.402Z,4.58
2022-11-17T05:41:26.084Z,5.69
2022-11-17T05:43:57.010Z,7.44
2022-11-17T05:46:27.211Z,7.82
2022-11-17T05:48:55.373Z,6.73
2022-11-17T05:51:28.168Z,5.59
2022-11-17T05:53:57.708Z,4.78
2022-11-17T05:57:06.278Z,4.31
2022-11-17T05:59:44.731Z,4.64
2022-11-17T06:02:42.447Z,6.55
2022-11-17T06:05:55.972Z,7.47
2022-11-17T06:08:24.794Z,6.29
2022-11-17T06:10:53.815Z,5.36
2022-11-17T06:13:28.488Z,4.70
2022-11-17T06:16:09.724Z,4.31
2022-11-17T06:18:49.913Z,5.74
2022-11-17T06:21:18.700Z,6.85
2022-11-17T06:23:49.305Z,5.86
2022-11-17T06:26:21.756Z,4.81
2022-11-17T06:28:56.444Z,4.22
2022-11-17T06:31:28.052Z,4.66
2022-11-17T06:33:57.689Z,6.16
2022-11-17T06:36:27.424Z,6.20
2022-11-17T06:38:57.641Z,5.41
2022-11-17T06:41:28.111Z,4.60
2022-11-17T06:43:58.780Z,4.09
2022-11-17T06:49:31.677Z,6.25
2022-11-17T06:52:07.286Z,6.47
2022-11-17T06:54:41.146Z,5.50
2022-11-17T06:57:12.559Z,4.69
2022-11-17T06:59:41.616Z,4.20
2022-11-17T07:02:10.843Z,4.87
2022-11-17T07:04:47.086Z,6.81
2022-11-17T07:07:19.661Z,7.97
2022-11-17T07:09:49.871Z,7.29
2022-11-17T07:12:18.411Z,6.23
2022-11-17T07:14:50.991Z,5.41
2022-11-17T07:17:21.383Z,4.76
2022-11-17T07:19:50.101Z,4.32
2022-11-17T07:22:20.920Z,3.98
2022-11-17T07:24:56.404Z,4.54
2022-11-17T07:27:25.425Z,6.50
2022-11-17T07:29:54.529Z,6.38
2022-11-17T07:32:23.609Z,5.62
2022-11-17T07:34:56.282Z,4.90
2022-11-17T07:37:25.847Z,4.38
2022-11-17T07:39:57.598Z,4.03
2022-11-17T07:42:33.105Z,4.88
2022-11-17T07:45:01.925Z,6.85
2022-11-17T07:47:31.568Z,7.16
2022-11-17T07:50:00.710Z,5.77
2022-11-17T07:52:31.355Z,4.78
2022-11-17T07:55:04.022Z,4.20
2022-11-17T07:57:37.028Z,4.53
2022-11-17T08:00:05.480Z,6.42
2022-11-17T08:02:35.526Z,6.69
2022-11-17T08:05:14.770Z,5.75
2022-11-17T08:07:43.033Z,4.91
2022-11-17T08:10:14.986Z,4.17
2022-11-17T08:12:44.839Z,4.44
2022-11-17T08:15:13.916Z,5.59
2022-11-17T08:17:43.856Z,5.32
2022-11-17T08:20:14.570Z,4.53
2022-11-17T08:22:43.074Z,3.99
2022-11-17T08:25:15.694Z,4.23
2022-11-17T08:27:44.942Z,5.84
2022-11-17T08:30:15.011Z,6.05
2022-11-17T08:32:52.693Z,5.19
2022-11-17T08:35:25.225Z,4.45
2022-11-17T08:37:55.566Z,4.05
2022-11-17T08:40:26.550Z,4.01
2022-11-17T08:43:00.631Z,5.79
2022-11-17T08:45:29.993Z,7.13
2022-11-17T08:47:59.066Z,6.48
2022-11-17T08:50:27.768Z,5.58
2022-11-17T08:52:57.093Z,4.92
2022-11-17T08:55:26.372Z,4.42
2022-11-17T08:57:58.924Z,4.00
2022-11-17T09:00:29.441Z,3.85
2022-11-17T09:02:58.829Z,5.24
2022-11-17T09:05:28.899Z,7.28
2022-11-17T09:08:22.476Z,8.27
2022-11-17T09:10:52.004Z,7.19
2022-11-17T09:13:24.956Z,6.17
2022-11-17T09:15:54.248Z,5.38
2022-11-17T09:18:23.916Z,4.85
2022-11-17T09:20:59.087Z,4.48
2022-11-17T09:23:30.421Z,4.18
2022-11-17T09:26:09.021Z,4.44
2022-11-17T09:28:39.040Z,6.98
2022-11-17T09:31:23.213Z,8.16
2022-11-17T09:34:00.650Z,7.16
2022-11-17T09:36:33.154Z,6.11
2022-11-17T09:39:02.603Z,5.38
2022-11-17T09:41:51.844Z,4.89
2022-11-17T09:44:55.754Z,4.45
2022-11-17T09:47:33.904Z,4.13
2022-11-17T09:50:29.916Z,3.91
2022-11-17T09:53:24.318Z,3.76
2022-11-17T09:56:03.025Z,3.60
2022-11-17T09:59:12.886Z,3.93
2022-11-17T10:01:42.141Z,6.16
2022-11-17T10:04:17.060Z,6.79
2022-11-17T10:06:53.174Z,6.05
2022-11-17T10:09:37.009Z,5.31
2022-11-17T10:12:32.327Z,4.69
2022-11-17T10:15:25.568Z,4.20
2022-11-17T10:17:53.489Z,3.92
2022-11-17T10:20:22.300Z,3.74
2022-11-17T10:23:13.217Z,3.64
2022-11-17T10:29:12.932Z,7.44
2022-11-17T10:31:49.092Z,7.50
2022-11-17T10:34:42.355Z,6.47
2022-11-17T10:37:31.581Z,5.55
2022-11-17T10:40:34.457Z,4.97
2022-11-17T10:43:11.597Z,4.47
2022-11-17T10:45:57.871Z,4.64
2022-11-17T10:48:43.877Z,6.56
2022-11-17T10:51:20.671Z,8.37
2022-11-17T10:54:15.077Z,8.87
2022-11-17T10:56:50.182Z,7.64
2022-11-17T10:59:42.272Z,6.55
2022-11-17T11:02:39.259Z,5.63
2022-11-17T11:05:28.719Z,4.87
2022-11-17T11:08:25.310Z,4.43
2022-11-17T11:11:41.424Z,4.32
2022-11-17T11:14:31.215Z,6.25
2022-11-17T11:17:00.802Z,7.56
2022-11-17T11:19:30.144Z,6.79
2022-11-17T11:22:31.431Z,5.81
2022-11-17T11:25:37.131Z,5.03
2022-11-17T11:28:20.140Z,4.49
2022-11-17T11:31:04.951Z,4.19
2022-11-17T11:33:42.148Z,5.32
2022-11-17T11:36:41.872Z,7.22
2022-11-17T11:39:51.435Z,7.67
2022-11-17T11:42:52.775Z,6.54
2022-11-17T11:46:09.431Z,5.64
2022-11-17T11:48:44.493Z,4.98
2022-11-17T11:51:30.479Z,4.61
2022-11-17T11:54:30.868Z,4.29
2022-11-17T11:57:03.716Z,4.02
2022-11-17T12:00:04.327Z,4.03
2022-11-17T12:02:51.556Z,5.99
2022-11-17T12:05:49.153Z,7.66
2022-11-17T12:08:31.608Z,7.42
2022-11-17T12:11:34.775Z,6.39
2022-11-17T12:14:09.503Z,5.52
2022-11-17T12:16:41.485Z,5.01
2022-11-17T12:19:53.375Z,4.65
2022-11-17T12:22:34.441Z,4.27
2022-11-17T12:25:29.469Z,4.01
2022-11-17T12:27:58.803Z,3.80
2022-11-17T12:30:34.284Z,3.70
2022-11-17T12:33:08.554Z,4.86
2022-11-17T12:35:40.613Z,6.75
2022-11-17T12:38:18.123Z,7.57
2022-11-17T12:40:51.587Z,6.64
2022-11-17T12:43:32.882Z,5.72
2022-11-17T12:46:48.123Z,4.97
2022-11-17T12:49:54.529Z,4.40
2022-11-17T12:52:37.826Z,3.98
2022-11-17T12:55:28.435Z,3.72
2022-11-17T12:58:16.430Z,3.89
2022-11-17T13:01:39.211Z,5.79
2022-11-17T13:04:55.925Z,7.15
2022-11-17T13:07:29.501Z,6.08
2022-11-17T13:09:59.985Z,5.31
2022-11-17T13:12:36.986Z,4.77
2022-11-17T13:15:24.149Z,4.35
2022-11-17T13:17:56.502Z,4.03
2022-11-17T13:20:29.665Z,4.06
2022-11-17T13:23:27.376Z,5.71
2022-11-17T13:26:38.966Z,7.57
2022-11-17T13:29:21.169Z,7.41
2022-11-17T13:32:28.706Z,6.26
2022-11-17T13:35:04.191Z,5.45
2022-11-17T13:37:34.888Z,4.91
2022-11-17T13:40:24.561Z,4.47
2022-11-17T13:42:55.799Z,4.12
2022-11-17T13:45:23.772Z,3.86
2022-11-17T13:47:55.698Z,3.67
2022-11-17T13:50:33.749Z,3.82
2022-11-17T13:53:10.943Z,5.65
2022-11-17T13:55:47.767Z,6.59
2022-11-17T13:58:37.158Z,5.84
2022-11-17T14:01:12.492Z,5.06
2022-11-17T14:03:50.674Z,4.61
2022-11-17T14:06:20.309Z,4.23
2022-11-17T14:09:11.938Z,3.98
2022-11-17T14:11:42.464Z,3.77
2022-11-17T14:14:24.356Z,3.63
2022-11-17T14:16:55.502Z,4.68
2022-11-17T14:19:36.674Z,5.92
2022-11-17T14:22:15.845Z,5.53
2022-11-17T14:24:49.204Z,4.90
2022-11-17T14:27:35.676Z,4.47
2022-11-17T14:30:10.560Z,4.08
2022-11-17T14:32:39.546Z,3.81
2022-11-17T14:35:12.890Z,3.63
2022-11-17T14:37:41.971Z,3.47
2022-11-17T14:40:18.479Z,3.95
2022-11-17T14:42:46.877Z,5.54
2022-11-17T14:45:19.268Z,5.42
2022-11-17T14:47:48.327Z,4.95
2022-11-17T14:50:19.433Z,4.47
2022-11-17T14:52:49.072Z,4.10
2022-11-17T14:55:19.886Z,3.85
2022-11-17T14:57:50.077Z,3.66
2022-11-17T15:00:23.457Z,3.50
2022-11-17T15:02:53.682Z,3.39
2022-11-17T15:05:22.195Z,3.35
2022-11-17T15:07:52.838Z,4.75
2022-11-17T15:10:22.901Z,6.96
2022-11-17T15:12:58.610Z,7.89
2022-11-17T15:15:38.327Z,7.07
2022-11-17T15:18:06.749Z,6.18
2022-11-17T15:20:40.334Z,5.52
2022-11-17T15:23:10.084Z,5.05
2022-11-17T15:25:43.132Z,4.66
2022-11-17T15:28:20.553Z,4.33
2022-11-17T15:30:55.580Z,4.04
2022-11-17T15:33:24.672Z,3.81
2022-11-17T15:36:04.537Z,3.61
2022-11-17T15:38:35.405Z,3.45
2022-11-17T15:41:04.577Z,3.32
2022-11-17T15:43:36.901Z,4.36
2022-11-17T15:46:22.679Z,6.65
2022-11-17T15:48:56.570Z,7.98
2022-11-17T15:51:31.245Z,7.13
2022-11-17T15:54:01.524Z,6.18
2022-11-17T15:56:38.200Z,5.44
2022-11-17T15:59:07.879Z,4.87
2022-11-17T16:01:40.610Z,4.47
2022-11-17T16:04:19.220Z,4.11
2022-11-17T16:06:56.548Z,3.84
2022-11-17T16:09:28.064Z,3.62
2022-11-17T16:11:58.202Z,3.56
2022-11-17T16:14:26.347Z,4.95
2022-11-17T16:17:00.668Z,7.04
2022-11-17T16:19:33.329Z,8.08
2022-11-17T16:22:01.209Z,7.06
2022-11-17T16:24:33.605Z,6.07
2022-11-17T16:27:04.555Z,5.42
2022-11-17T16:32:25.486Z,4.39
2022-11-17T16:34:55.141Z,4.12
2022-11-17T16:37:23.892Z,3.93
2022-11-17T16:39:56.636Z,3.76
2022-11-17T16:42:27.807Z,3.65
2022-11-17T16:45:03.539Z,4.93
2022-11-17T16:47:35.893Z,6.77
2022-11-17T16:50:12.573Z,6.77
2022-11-17T16:52:50.248Z,5.83
2022-11-17T16:55:21.065Z,5.12
2022-11-17T16:57:55.059Z,4.61
2022-11-17T17:00:35.960Z,4.21
2022-11-17T17:03:09.724Z,3.95
2022-11-17T17:05:42.234Z,3.74
2022-11-17T17:08:12.301Z,3.59
2022-11-17T17:10:46.047Z,3.48
2022-11-17T17:13:15.130Z,4.41
2022-11-17T17:15:45.252Z,6.58
2022-11-17T17:18:13.552Z,7.82
2022-11-17T17:20:54.768Z,7.06
2022-11-17T17:23:24.752Z,5.82
2022-11-17T17:26:17.439Z,5.08
2022-11-17T17:28:53.276Z,4.58
2022-11-17T17:31:29.736Z,4.24
2022-11-17T17:34:00.162Z,4.00
2022-11-17T17:36:31.264Z,3.82
2022-11-17T17:39:03.687Z,3.65
2022-11-17T17:41:41.477Z,3.50
2022-11-17T17:44:16.841Z,3.47
2022-11-17T17:46:48.450Z,4.82
2022-11-17T17:49:20.082Z,7.10
2022-11-17T17:51:48.294Z,8.16
2022-11-17T17:54:31.402Z,7.35
2022-11-17T17:57:05.426Z,6.27
2022-11-17T17:59:38.048Z,5.55
2022-11-17T18:02:10.235Z,5.09
2022-11-17T18:04:43.202Z,4.73
2022-11-17T18:07:14.500Z,4.42
2022-11-17T18:09:50.831Z,4.12
2022-11-17T18:12:24.566Z,3.90
2022-11-17T18:14:52.926Z,3.72
2022-11-17T18:17:22.888Z,3.59
2022-11-17T18:19:53.758Z,3.44
2022-11-17T18:22:23.159Z,3.34
2022-11-17T18:24:53.798Z,3.59
2022-11-17T18:27:25.847Z,5.33
2022-11-17T18:29:56.086Z,6.54
2022-11-17T18:32:25.421Z,6.14
2022-11-17T18:34:54.173Z,5.41
2022-11-17T18:37:23.408Z,4.89
2022-11-17T18:39:51.686Z,4.51
2022-11-17T18:42:20.380Z,4.23
2022-11-17T18:44:49.712Z,4.02
2022-11-17T18:47:18.921Z,3.83
2022-11-17T18:49:48.363Z,3.68
2022-11-17T18:52:16.152Z,3.55
2022-11-17T18:54:54.580Z,3.42
2022-11-17T18:57:23.210Z,3.31
2022-11-17T18:59:55.419Z,3.23
2022-11-17T19:02:25.548Z,3.16
2022-11-17T19:05:05.067Z,3.16
2022-11-17T19:07:35.719Z,4.43
2022-11-17T19:10:05.992Z,6.56
2022-11-17T19:12:34.781Z,8.13
2022-11-17T19:15:05.980Z,8.66
2022-11-17T19:17:34.743Z,7.69
2022-11-17T19:20:04.097Z,6.66
2022-11-17T19:22:37.595Z,5.90
2022-11-17T19:25:10.551Z,5.28
2022-11-17T19:27:41.342Z,4.84
2022-11-17T19:30:11.188Z,4.52
2022-11-17T19:32:41.060Z,4.27
2022-11-17T19:35:14.809Z,4.06
2022-11-17T19:37:46.898Z,3.85
2022-11-17T19:40:14.917Z,3.69
2022-11-17T19:42:43.627Z,3.52
2022-11-17T19:45:15.612Z,3.41
2022-11-17T19:47:47.969Z,3.27
2022-11-17T19:50:16.873Z,3.18
2022-11-17T19:52:46.011Z,3.10
2022-11-17T19:55:22.417Z,3.04
2022-11-17T19:57:51.053Z,3.05
2022-11-17T20:00:21.971Z,4.29
2022-11-17T20:02:51.801Z,4.98
2022-11-17T20:05:22.004Z,4.66
2022-11-17T20:07:53.667Z,4.29
2022-11-17T20:10:21.445Z,3.97
2022-11-17T20:12:49.565Z,3.74
2022-11-17T20:15:34.018Z,3.57
2022-11-17T20:18:06.529Z,3.40
2022-11-17T20:20:38.096Z,3.29
2022-11-17T20:23:09.998Z,3.21
2022-11-17T20:25:38.801Z,3.14
2022-11-17T20:28:10.067Z,3.08
2022-11-17T20:30:41.563Z,3.20
2022-11-17T20:33:10.347Z,4.84
2022-11-17T20:35:39.027Z,6.84
2022-11-17T20:38:11.701Z,7.29
2022-11-17T20:40:45.883Z,6.40
2022-11-17T20:43:20.941Z,5.46
2022-11-17T20:45:55.552Z,4.92
2022-11-17T20:48:25.860Z,4.52
2022-11-17T20:51:24.914Z,4.19
2022-11-17T20:53:54.235Z,3.91
2022-11-17T20:56:22.907Z,3.71
2022-11-17T20:58:52.032Z,3.58
2022-11-17T21:01:25.438Z,3.44
2022-11-17T21:03:57.349Z,3.31
2022-11-17T21:06:26.603Z,3.21
2022-11-17T21:08:58.199Z,3.15
2022-11-17T21:11:50.434Z,3.07
2022-11-17T21:14:18.148Z,3.81
2022-11-17T21:16:50.706Z,5.93
2022-11-17T21:19:21.017Z,7.03
2022-11-17T21:21:54.128Z,6.44
2022-11-17T21:24:24.097Z,5.64
2022-11-17T21:26:54.877Z,5.04
2022-11-17T21:29:24.008Z,4.61
2022-11-17T21:31:54.795Z,4.26
2022-11-17T21:34:26.003Z,3.97
2022-11-17T21:36:55.763Z,3.75
2022-11-17T21:39:23.747Z,3.56
2022-11-17T21:41:58.695Z,3.39
2022-11-17T21:44:28.132Z,3.27
2022-11-17T21:46:57.402Z,3.18
2022-11-17T21:49:26.692Z,3.11
2022-11-17T21:51:58.042Z,3.77
2022-11-17T21:54:33.423Z,5.65
2022-11-17T21:57:11.437Z,6.23
2022-11-17T21:59:40.472Z,5.55
2022-11-17T22:02:11.847Z,4.94
2022-11-17T22:04:43.285Z,4.52
2022-11-17T22:07:15.825Z,4.15
2022-11-17T22:09:44.678Z,3.86
2022-11-17T22:12:15.213Z,3.65
2022-11-17T22:14:48.331Z,3.47
2022-11-17T22:17:19.034Z,3.32
2022-11-17T22:19:48.863Z,3.19
2022-11-17T22:22:18.432Z,3.10
2022-11-17T22:24:49.891Z,3.01
2022-11-17T22:27:26.696Z,3.45
2022-11-17T22:29:58.020Z,5.28
2022-11-17T22:32:27.281Z,5.88
2022-11-17T22:35:02.499Z,5.31
2022-11-17T22:37:34.851Z,4.72
2022-11-17T22:40:03.988Z,4.33
2022-11-17T22:42:38.326Z,4.04
2022-11-17T22:45:09.316Z,3.82
2022-11-17T22:47:37.319Z,3.64
2022-11-17T22:50:05.844Z,3.49
2022-11-17T22:52:33.749Z,3.36
2022-11-17T22:55:02.563Z,3.26
2022-11-17T22:57:30.966Z,3.16
2022-11-17T23:00:01.776Z,3.08
2022-11-17T23:02:35.173Z,3.00
2022-11-17T23:05:07.983Z,3.40
2022-11-17T23:07:39.203Z,5.39
2022-11-17T23:10:07.876Z,7.14
2022-11-17T23:12:35.899Z,7.37
2022-11-17T23:15:10.417Z,6.26
2022-11-17T23:17:39.241Z,5.34
2022-11-17T23:20:09.219Z,4.76
2022-11-17T23:22:40.796Z,4.39
2022-11-17T23:25:09.358Z,4.09
2022-11-17T23:27:40.868Z,3.85
2022-11-17T23:30:12.656Z,3.62
2022-11-17T23:32:49.836Z,3.44
2022-11-17T23:35:17.983Z,3.28
2022-11-17T23:37:49.479Z,3.17
2022-11-17T23:40:18.068Z,3.09
2022-11-17T23:42:46.228Z,3.01
2022-11-17T23:45:15.236Z,2.95
2022-11-17T23:47:43.446Z,2.89
2022-11-17T23:50:12.662Z,3.30
2022-11-17T23:52:43.144Z,5.36
2022-11-17T23:55:10.898Z,7.30
2022-11-17T23:57:40.384Z,8.56
